sensor_id;sensor_type;location;lat;lon;timestamp;P1;durP1;ratioP1;P2;durP2;ratioP2
72920;SDS011;61064;51.654;5.476;2023-08-21T00:01:14;9.65;;;2.08;;
72920;SDS011;61064;51.654;5.476;2023-08-21T00:03:39;11.63;;;2.37;;
72920;SDS011;61064;51.654;5.476;2023-08-21T00:06:05;7.07;;;2.17;;
72920;SDS011;61064;51.654;5.476;2023-08-21T00:08:30;8.20;;;2.37;;
72920;SDS011;61064;51.654;5.476;2023-08-21T00:10:55;9.23;;;2.00;;
72920;SDS011;61064;51.654;5.476;2023-08-21T00:13:22;7.15;;;2.00;;
72920;SDS011;61064;51.654;5.476;2023-08-21T00:15:48;12.50;;;2.45;;
72920;SDS011;61064;51.654;5.476;2023-08-21T00:18:13;10.13;;;2.37;;
72920;SDS011;61064;51.654;5.476;2023-08-21T00:20:39;8.10;;;2.30;;
72920;SDS011;61064;51.654;5.476;2023-08-21T00:23:06;9.20;;;2.33;;
72920;SDS011;61064;51.654;5.476;2023-08-21T00:25:33;9.55;;;2.30;;
72920;SDS011;61064;51.654;5.476;2023-08-21T00:27:59;11.70;;;2.58;;
72920;SDS011;61064;51.654;5.476;2023-08-21T00:30:24;9.00;;;2.20;;
72920;SDS011;61064;51.654;5.476;2023-08-21T00:32:50;9.57;;;2.07;;
72920;SDS011;61064;51.654;5.476;2023-08-21T00:35:15;8.17;;;1.90;;
72920;SDS011;61064;51.654;5.476;2023-08-21T00:37:40;9.90;;;2.25;;
72920;SDS011;61064;51.654;5.476;2023-08-21T00:40:06;9.57;;;2.27;;
72920;SDS011;61064;51.654;5.476;2023-08-21T00:42:32;10.10;;;2.25;;
72920;SDS011;61064;51.654;5.476;2023-08-21T00:44:57;9.73;;;2.13;;
72920;SDS011;61064;51.654;5.476;2023-08-21T00:47:23;9.70;;;2.50;;
72920;SDS011;61064;51.654;5.476;2023-08-21T00:49:48;7.90;;;2.10;;
72920;SDS011;61064;51.654;5.476;2023-08-21T00:52:14;10.88;;;2.33;;
72920;SDS011;61064;51.654;5.476;2023-08-21T00:54:40;10.85;;;2.38;;
72920;SDS011;61064;51.654;5.476;2023-08-21T00:57:06;9.77;;;2.50;;
72920;SDS011;61064;51.654;5.476;2023-08-21T00:59:32;8.32;;;2.20;;
72920;SDS011;61064;51.654;5.476;2023-08-21T01:01:58;8.90;;;2.58;;
72920;SDS011;61064;51.654;5.476;2023-08-21T01:04:23;9.83;;;2.50;;
72920;SDS011;61064;51.654;5.476;2023-08-21T01:06:49;10.73;;;2.43;;
72920;SDS011;61064;51.654;5.476;2023-08-21T01:15:14;11.13;;;2.47;;
72920;SDS011;61064;51.654;5.476;2023-08-21T01:17:43;8.27;;;2.47;;
72920;SDS011;61064;51.654;5.476;2023-08-21T01:20:11;10.10;;;2.20;;
72920;SDS011;61064;51.654;5.476;2023-08-21T01:22:38;8.27;;;2.03;;
72920;SDS011;61064;51.654;5.476;2023-08-21T01:25:05;7.70;;;2.25;;
72920;SDS011;61064;51.654;5.476;2023-08-21T01:27:31;9.77;;;2.33;;
72920;SDS011;61064;51.654;5.476;2023-08-21T01:29:58;8.98;;;2.30;;
72920;SDS011;61064;51.654;5.476;2023-08-21T01:32:27;9.83;;;2.30;;
72920;SDS011;61064;51.654;5.476;2023-08-21T01:34:59;8.80;;;2.28;;
72920;SDS011;61064;51.654;5.476;2023-08-21T01:37:26;9.13;;;2.50;;
72920;SDS011;61064;51.654;5.476;2023-08-21T01:39:53;9.85;;;2.42;;
72920;SDS011;61064;51.654;5.476;2023-08-21T01:42:19;9.97;;;2.53;;
72920;SDS011;61064;51.654;5.476;2023-08-21T01:44:44;10.60;;;2.50;;
72920;SDS011;61064;51.654;5.476;2023-08-21T01:47:12;9.32;;;2.30;;
72920;SDS011;61064;51.654;5.476;2023-08-21T01:49:38;9.83;;;2.23;;
72920;SDS011;61064;51.654;5.476;2023-08-21T01:52:03;7.60;;;2.00;;
72920;SDS011;61064;51.654;5.476;2023-08-21T01:54:29;8.77;;;2.40;;
72920;SDS011;61064;51.654;5.476;2023-08-21T01:56:54;7.87;;;2.17;;
72920;SDS011;61064;51.654;5.476;2023-08-21T01:59:19;8.13;;;2.10;;
72920;SDS011;61064;51.654;5.476;2023-08-21T02:01:45;8.23;;;2.10;;
72920;SDS011;61064;51.654;5.476;2023-08-21T02:04:10;7.80;;;2.33;;
72920;SDS011;61064;51.654;5.476;2023-08-21T02:06:36;8.95;;;2.10;;
72920;SDS011;61064;51.654;5.476;2023-08-21T02:09:01;7.53;;;2.20;;
72920;SDS011;61064;51.654;5.476;2023-08-21T02:11:26;10.40;;;2.60;;
72920;SDS011;61064;51.654;5.476;2023-08-21T02:13:52;7.23;;;2.27;;
72920;SDS011;61064;51.654;5.476;2023-08-21T02:16:17;8.20;;;2.33;;
72920;SDS011;61064;51.654;5.476;2023-08-21T02:18:42;9.77;;;2.80;;
72920;SDS011;61064;51.654;5.476;2023-08-21T02:21:08;11.60;;;2.80;;
72920;SDS011;61064;51.654;5.476;2023-08-21T02:23:33;8.73;;;2.90;;
72920;SDS011;61064;51.654;5.476;2023-08-21T02:25:58;10.60;;;2.80;;
72920;SDS011;61064;51.654;5.476;2023-08-21T02:28:24;10.07;;;2.90;;
72920;SDS011;61064;51.654;5.476;2023-08-21T02:30:50;9.52;;;2.47;;
72920;SDS011;61064;51.654;5.476;2023-08-21T02:33:15;9.23;;;2.50;;
72920;SDS011;61064;51.654;5.476;2023-08-21T02:35:40;9.97;;;3.13;;
72920;SDS011;61064;51.654;5.476;2023-08-21T02:38:06;9.47;;;2.67;;
72920;SDS011;61064;51.654;5.476;2023-08-21T02:40:31;8.00;;;2.70;;
72920;SDS011;61064;51.654;5.476;2023-08-21T02:42:57;8.45;;;2.25;;
72920;SDS011;61064;51.654;5.476;2023-08-21T02:45:22;11.30;;;2.73;;
72920;SDS011;61064;51.654;5.476;2023-08-21T02:47:48;8.57;;;2.70;;
72920;SDS011;61064;51.654;5.476;2023-08-21T02:50:13;9.70;;;2.60;;
72920;SDS011;61064;51.654;5.476;2023-08-21T02:52:38;7.55;;;2.58;;
72920;SDS011;61064;51.654;5.476;2023-08-21T02:55:04;6.97;;;2.40;;
72920;SDS011;61064;51.654;5.476;2023-08-21T02:57:30;9.85;;;3.00;;
72920;SDS011;61064;51.654;5.476;2023-08-21T02:59:56;9.80;;;2.70;;
72920;SDS011;61064;51.654;5.476;2023-08-21T03:02:21;8.67;;;2.80;;
72920;SDS011;61064;51.654;5.476;2023-08-21T03:04:47;11.82;;;2.97;;
72920;SDS011;61064;51.654;5.476;2023-08-21T03:07:14;10.95;;;2.90;;
72920;SDS011;61064;51.654;5.476;2023-08-21T03:09:39;14.23;;;3.07;;
72920;SDS011;61064;51.654;5.476;2023-08-21T03:12:05;10.75;;;3.40;;
72920;SDS011;61064;51.654;5.476;2023-08-21T03:14:31;9.43;;;2.80;;
72920;SDS011;61064;51.654;5.476;2023-08-21T03:16:57;12.87;;;3.47;;
72920;SDS011;61064;51.654;5.476;2023-08-21T03:19:22;7.97;;;3.00;;
72920;SDS011;61064;51.654;5.476;2023-08-21T03:21:48;9.27;;;3.30;;
72920;SDS011;61064;51.654;5.476;2023-08-21T03:24:13;8.40;;;3.15;;
72920;SDS011;61064;51.654;5.476;2023-08-21T03:26:38;8.60;;;3.03;;
72920;SDS011;61064;51.654;5.476;2023-08-21T03:29:04;8.40;;;3.07;;
72920;SDS011;61064;51.654;5.476;2023-08-21T03:31:29;8.80;;;2.83;;
72920;SDS011;61064;51.654;5.476;2023-08-21T03:33:55;10.07;;;3.35;;
72920;SDS011;61064;51.654;5.476;2023-08-21T03:36:21;10.27;;;3.30;;
72920;SDS011;61064;51.654;5.476;2023-08-21T03:38:55;11.32;;;3.40;;
72920;SDS011;61064;51.654;5.476;2023-08-21T03:41:21;11.70;;;3.50;;
72920;SDS011;61064;51.654;5.476;2023-08-21T03:43:46;9.80;;;3.77;;
72920;SDS011;61064;51.654;5.476;2023-08-21T03:46:12;9.93;;;3.50;;
72920;SDS011;61064;51.654;5.476;2023-08-21T03:48:37;8.60;;;3.33;;
72920;SDS011;61064;51.654;5.476;2023-08-21T03:51:02;11.97;;;4.00;;
72920;SDS011;61064;51.654;5.476;2023-08-21T03:53:28;8.88;;;3.60;;
72920;SDS011;61064;51.654;5.476;2023-08-21T03:55:53;11.70;;;3.70;;
72920;SDS011;61064;51.654;5.476;2023-08-21T03:58:19;10.87;;;3.80;;
72920;SDS011;61064;51.654;5.476;2023-08-21T04:00:44;11.53;;;3.90;;
72920;SDS011;61064;51.654;5.476;2023-08-21T04:03:10;12.93;;;3.47;;
72920;SDS011;61064;51.654;5.476;2023-08-21T04:05:35;12.90;;;4.00;;
72920;SDS011;61064;51.654;5.476;2023-08-21T04:08:02;10.68;;;3.70;;
72920;SDS011;61064;51.654;5.476;2023-08-21T04:10:28;9.87;;;3.73;;
72920;SDS011;61064;51.654;5.476;2023-08-21T04:12:53;9.27;;;3.80;;
72920;SDS011;61064;51.654;5.476;2023-08-21T04:15:18;8.35;;;3.65;;
72920;SDS011;61064;51.654;5.476;2023-08-21T04:17:44;10.10;;;3.60;;
72920;SDS011;61064;51.654;5.476;2023-08-21T04:20:09;12.17;;;3.77;;
72920;SDS011;61064;51.654;5.476;2023-08-21T04:22:35;12.55;;;3.90;;
72920;SDS011;61064;51.654;5.476;2023-08-21T04:25:00;11.17;;;3.90;;
72920;SDS011;61064;51.654;5.476;2023-08-21T04:27:26;11.77;;;3.67;;
72920;SDS011;61064;51.654;5.476;2023-08-21T04:29:52;11.27;;;4.37;;
72920;SDS011;61064;51.654;5.476;2023-08-21T04:32:18;11.98;;;4.28;;
72920;SDS011;61064;51.654;5.476;2023-08-21T04:34:43;14.90;;;4.33;;
72920;SDS011;61064;51.654;5.476;2023-08-21T04:37:09;9.80;;;4.40;;
72920;SDS011;61064;51.654;5.476;2023-08-21T04:39:34;11.07;;;4.17;;
72920;SDS011;61064;51.654;5.476;2023-08-21T04:42:01;11.02;;;4.15;;
72920;SDS011;61064;51.654;5.476;2023-08-21T04:44:27;10.53;;;4.50;;
72920;SDS011;61064;51.654;5.476;2023-08-21T04:46:52;9.53;;;3.93;;
72920;SDS011;61064;51.654;5.476;2023-08-21T04:49:17;8.80;;;4.37;;
72920;SDS011;61064;51.654;5.476;2023-08-21T04:51:43;13.20;;;4.47;;
72920;SDS011;61064;51.654;5.476;2023-08-21T04:54:11;13.77;;;5.00;;
72920;SDS011;61064;51.654;5.476;2023-08-21T04:56:36;15.47;;;4.83;;
72920;SDS011;61064;51.654;5.476;2023-08-21T04:59:02;9.93;;;4.70;;
72920;SDS011;61064;51.654;5.476;2023-08-21T05:01:27;10.57;;;4.45;;
72920;SDS011;61064;51.654;5.476;2023-08-21T05:03:53;11.47;;;4.80;;
72920;SDS011;61064;51.654;5.476;2023-08-21T05:06:19;12.48;;;4.65;;
72920;SDS011;61064;51.654;5.476;2023-08-21T05:08:45;12.63;;;4.90;;
72920;SDS011;61064;51.654;5.476;2023-08-21T05:11:10;12.27;;;4.73;;
72920;SDS011;61064;51.654;5.476;2023-08-21T05:13:35;11.43;;;4.83;;
72920;SDS011;61064;51.654;5.476;2023-08-21T05:16:01;10.53;;;4.90;;
72920;SDS011;61064;51.654;5.476;2023-08-21T05:18:27;13.77;;;4.93;;
72920;SDS011;61064;51.654;5.476;2023-08-21T05:20:54;12.80;;;5.33;;
72920;SDS011;61064;51.654;5.476;2023-08-21T05:23:20;13.95;;;5.40;;
72920;SDS011;61064;51.654;5.476;2023-08-21T05:25:46;12.20;;;5.60;;
72920;SDS011;61064;51.654;5.476;2023-08-21T05:28:13;11.95;;;5.10;;
72920;SDS011;61064;51.654;5.476;2023-08-21T05:30:38;11.60;;;5.10;;
72920;SDS011;61064;51.654;5.476;2023-08-21T05:33:05;13.20;;;5.10;;
72920;SDS011;61064;51.654;5.476;2023-08-21T05:35:34;13.33;;;5.37;;
72920;SDS011;61064;51.654;5.476;2023-08-21T05:38:01;14.15;;;5.70;;
72920;SDS011;61064;51.654;5.476;2023-08-21T05:40:29;14.05;;;5.72;;
72920;SDS011;61064;51.654;5.476;2023-08-21T05:42:54;12.57;;;5.47;;
72920;SDS011;61064;51.654;5.476;2023-08-21T05:45:20;15.75;;;6.05;;
72920;SDS011;61064;51.654;5.476;2023-08-21T05:47:45;14.27;;;6.07;;
72920;SDS011;61064;51.654;5.476;2023-08-21T05:50:10;12.40;;;6.40;;
72920;SDS011;61064;51.654;5.476;2023-08-21T05:52:36;15.00;;;6.00;;
72920;SDS011;61064;51.654;5.476;2023-08-21T05:55:01;12.03;;;5.83;;
72920;SDS011;61064;51.654;5.476;2023-08-21T05:57:27;14.40;;;6.65;;
72920;SDS011;61064;51.654;5.476;2023-08-21T05:59:52;14.77;;;6.27;;
72920;SDS011;61064;51.654;5.476;2023-08-21T06:02:17;11.83;;;6.27;;
72920;SDS011;61064;51.654;5.476;2023-08-21T06:04:43;14.53;;;6.30;;
72920;SDS011;61064;51.654;5.476;2023-08-21T06:07:08;17.57;;;6.63;;
72920;SDS011;61064;51.654;5.476;2023-08-21T06:09:34;15.10;;;6.45;;
72920;SDS011;61064;51.654;5.476;2023-08-21T06:12:01;15.65;;;6.00;;
72920;SDS011;61064;51.654;5.476;2023-08-21T06:14:29;13.00;;;6.30;;
72920;SDS011;61064;51.654;5.476;2023-08-21T06:17:01;16.10;;;6.37;;
72920;SDS011;61064;51.654;5.476;2023-08-21T06:19:28;12.82;;;6.20;;
72920;SDS011;61064;51.654;5.476;2023-08-21T06:21:56;12.03;;;5.97;;
72920;SDS011;61064;51.654;5.476;2023-08-21T06:24:22;12.63;;;5.90;;
72920;SDS011;61064;51.654;5.476;2023-08-21T06:26:48;13.82;;;6.63;;
72920;SDS011;61064;51.654;5.476;2023-08-21T06:29:14;14.57;;;6.27;;
72920;SDS011;61064;51.654;5.476;2023-08-21T06:31:39;12.47;;;6.27;;
72920;SDS011;61064;51.654;5.476;2023-08-21T06:34:04;12.60;;;5.70;;
72920;SDS011;61064;51.654;5.476;2023-08-21T06:36:30;16.42;;;6.05;;
72920;SDS011;61064;51.654;5.476;2023-08-21T06:38:55;11.57;;;5.23;;
72920;SDS011;61064;51.654;5.476;2023-08-21T06:41:21;12.13;;;5.73;;
72920;SDS011;61064;51.654;5.476;2023-08-21T06:43:46;15.25;;;5.38;;
72920;SDS011;61064;51.654;5.476;2023-08-21T06:46:12;10.63;;;4.70;;
72920;SDS011;61064;51.654;5.476;2023-08-21T06:48:38;13.50;;;5.33;;
72920;SDS011;61064;51.654;5.476;2023-08-21T06:51:08;11.55;;;4.40;;
72920;SDS011;61064;51.654;5.476;2023-08-21T06:53:33;12.07;;;4.15;;
72920;SDS011;61064;51.654;5.476;2023-08-21T06:55:59;13.57;;;4.27;;
72920;SDS011;61064;51.654;5.476;2023-08-21T06:58:24;11.27;;;3.70;;
72920;SDS011;61064;51.654;5.476;2023-08-21T07:00:50;9.63;;;3.57;;
72920;SDS011;61064;51.654;5.476;2023-08-21T07:03:15;11.63;;;3.80;;
72920;SDS011;61064;51.654;5.476;2023-08-21T07:05:41;13.93;;;4.20;;
72920;SDS011;61064;51.654;5.476;2023-08-21T07:08:06;9.05;;;3.92;;
72920;SDS011;61064;51.654;5.476;2023-08-21T07:10:35;11.40;;;3.60;;
72920;SDS011;61064;51.654;5.476;2023-08-21T07:13:04;10.65;;;3.85;;
72920;SDS011;61064;51.654;5.476;2023-08-21T07:15:29;13.87;;;4.03;;
72920;SDS011;61064;51.654;5.476;2023-08-21T07:17:55;10.37;;;3.40;;
72920;SDS011;61064;51.654;5.476;2023-08-21T07:20:21;12.73;;;3.58;;
72920;SDS011;61064;51.654;5.476;2023-08-21T07:22:46;11.38;;;3.45;;
72920;SDS011;61064;51.654;5.476;2023-08-21T07:25:12;12.37;;;3.63;;
72920;SDS011;61064;51.654;5.476;2023-08-21T07:27:37;11.07;;;3.93;;
72920;SDS011;61064;51.654;5.476;2023-08-21T07:30:03;13.45;;;3.58;;
72920;SDS011;61064;51.654;5.476;2023-08-21T07:32:30;11.40;;;3.40;;
72920;SDS011;61064;51.654;5.476;2023-08-21T07:34:56;9.82;;;2.80;;
72920;SDS011;61064;51.654;5.476;2023-08-21T07:37:22;10.40;;;3.00;;
72920;SDS011;61064;51.654;5.476;2023-08-21T07:39:47;10.32;;;2.70;;
72920;SDS011;61064;51.654;5.476;2023-08-21T07:42:13;11.53;;;2.60;;
72920;SDS011;61064;51.654;5.476;2023-08-21T07:44:41;7.10;;;2.47;;
72920;SDS011;61064;51.654;5.476;2023-08-21T07:47:07;9.93;;;2.53;;
72920;SDS011;61064;51.654;5.476;2023-08-21T07:49:32;8.00;;;2.10;;
72920;SDS011;61064;51.654;5.476;2023-08-21T07:51:58;9.40;;;2.03;;
72920;SDS011;61064;51.654;5.476;2023-08-21T07:54:23;8.30;;;2.10;;
72920;SDS011;61064;51.654;5.476;2023-08-21T07:56:49;8.63;;;1.80;;
72920;SDS011;61064;51.654;5.476;2023-08-21T07:59:16;8.23;;;1.42;;
72920;SDS011;61064;51.654;5.476;2023-08-21T08:01:42;8.02;;;1.70;;
72920;SDS011;61064;51.654;5.476;2023-08-21T08:04:07;8.77;;;1.30;;
72920;SDS011;61064;51.654;5.476;2023-08-21T08:06:33;9.07;;;1.60;;
72920;SDS011;61064;51.654;5.476;2023-08-21T08:08:59;8.53;;;1.20;;
72920;SDS011;61064;51.654;5.476;2023-08-21T08:11:24;8.63;;;1.50;;
72920;SDS011;61064;51.654;5.476;2023-08-21T08:13:50;7.73;;;1.13;;
72920;SDS011;61064;51.654;5.476;2023-08-21T08:16:15;9.27;;;1.20;;
72920;SDS011;61064;51.654;5.476;2023-08-21T08:18:42;7.53;;;1.38;;
72920;SDS011;61064;51.654;5.476;2023-08-21T08:21:07;8.00;;;1.23;;
72920;SDS011;61064;51.654;5.476;2023-08-21T08:23:37;7.90;;;1.38;;
72920;SDS011;61064;51.654;5.476;2023-08-21T08:26:03;6.72;;;1.35;;
72920;SDS011;61064;51.654;5.476;2023-08-21T08:28:28;9.60;;;1.33;;
72920;SDS011;61064;51.654;5.476;2023-08-21T08:30:53;8.93;;;1.30;;
72920;SDS011;61064;51.654;5.476;2023-08-21T08:33:19;8.37;;;1.50;;
72920;SDS011;61064;51.654;5.476;2023-08-21T08:35:45;9.55;;;1.40;;
72920;SDS011;61064;51.654;5.476;2023-08-21T08:38:11;8.75;;;1.27;;
72920;SDS011;61064;51.654;5.476;2023-08-21T08:40:37;9.00;;;1.27;;
72920;SDS011;61064;51.654;5.476;2023-08-21T08:43:08;8.60;;;1.52;;
72920;SDS011;61064;51.654;5.476;2023-08-21T08:45:35;5.13;;;0.95;;
72920;SDS011;61064;51.654;5.476;2023-08-21T08:48:02;7.50;;;1.63;;
72920;SDS011;61064;51.654;5.476;2023-08-21T08:50:28;10.77;;;1.57;;
72920;SDS011;61064;51.654;5.476;2023-08-21T08:52:55;6.85;;;1.20;;
72920;SDS011;61064;51.654;5.476;2023-08-21T08:55:22;7.35;;;1.50;;
72920;SDS011;61064;51.654;5.476;2023-08-21T08:57:48;7.40;;;1.25;;
72920;SDS011;61064;51.654;5.476;2023-08-21T09:00:14;6.63;;;1.30;;
72920;SDS011;61064;51.654;5.476;2023-08-21T09:02:39;6.85;;;1.05;;
72920;SDS011;61064;51.654;5.476;2023-08-21T09:05:05;7.30;;;1.23;;
72920;SDS011;61064;51.654;5.476;2023-08-21T09:07:31;9.05;;;1.33;;
72920;SDS011;61064;51.654;5.476;2023-08-21T09:09:57;7.37;;;1.10;;
72920;SDS011;61064;51.654;5.476;2023-08-21T09:12:22;7.73;;;1.13;;
72920;SDS011;61064;51.654;5.476;2023-08-21T09:14:48;6.80;;;1.10;;
72920;SDS011;61064;51.654;5.476;2023-08-21T09:17:14;10.37;;;1.30;;
72920;SDS011;61064;51.654;5.476;2023-08-21T09:19:40;7.30;;;1.20;;
72920;SDS011;61064;51.654;5.476;2023-08-21T09:22:10;9.23;;;1.40;;
72920;SDS011;61064;51.654;5.476;2023-08-21T09:24:37;9.38;;;1.55;;
72920;SDS011;61064;51.654;5.476;2023-08-21T09:27:13;10.02;;;1.65;;
72920;SDS011;61064;51.654;5.476;2023-08-21T09:29:40;7.63;;;1.20;;
72920;SDS011;61064;51.654;5.476;2023-08-21T09:32:06;8.52;;;1.35;;
72920;SDS011;61064;51.654;5.476;2023-08-21T09:34:35;11.53;;;1.80;;
72920;SDS011;61064;51.654;5.476;2023-08-21T09:37:03;8.30;;;1.20;;
72920;SDS011;61064;51.654;5.476;2023-08-21T09:39:36;8.90;;;1.60;;
72920;SDS011;61064;51.654;5.476;2023-08-21T09:42:04;6.97;;;1.38;;
72920;SDS011;61064;51.654;5.476;2023-08-21T09:44:39;7.68;;;1.33;;
72920;SDS011;61064;51.654;5.476;2023-08-21T09:47:11;7.20;;;1.30;;
72920;SDS011;61064;51.654;5.476;2023-08-21T09:49:37;9.60;;;1.50;;
72920;SDS011;61064;51.654;5.476;2023-08-21T09:52:07;8.10;;;1.20;;
72920;SDS011;61064;51.654;5.476;2023-08-21T09:54:35;8.50;;;1.40;;
72920;SDS011;61064;51.654;5.476;2023-08-21T09:57:04;9.40;;;1.52;;
72920;SDS011;61064;51.654;5.476;2023-08-21T09:59:30;7.30;;;1.63;;
72920;SDS011;61064;51.654;5.476;2023-08-21T10:01:56;8.43;;;1.30;;
72920;SDS011;61064;51.654;5.476;2023-08-21T10:04:23;8.90;;;1.50;;
72920;SDS011;61064;51.654;5.476;2023-08-21T10:06:51;10.60;;;1.90;;
72920;SDS011;61064;51.654;5.476;2023-08-21T10:09:20;8.57;;;1.60;;
72920;SDS011;61064;51.654;5.476;2023-08-21T10:11:48;7.37;;;1.47;;
72920;SDS011;61064;51.654;5.476;2023-08-21T10:14:14;6.85;;;1.33;;
72920;SDS011;61064;51.654;5.476;2023-08-21T10:16:39;9.65;;;1.50;;
72920;SDS011;61064;51.654;5.476;2023-08-21T10:19:06;8.40;;;1.77;;
72920;SDS011;61064;51.654;5.476;2023-08-21T10:21:36;9.45;;;1.55;;
72920;SDS011;61064;51.654;5.476;2023-08-21T10:24:04;7.22;;;1.38;;
72920;SDS011;61064;51.654;5.476;2023-08-21T10:26:30;10.50;;;1.50;;
72920;SDS011;61064;51.654;5.476;2023-08-21T10:28:58;5.43;;;1.08;;
72920;SDS011;61064;51.654;5.476;2023-08-21T10:33:57;16.20;;;1.63;;
72920;SDS011;61064;51.654;5.476;2023-08-21T10:37:24;5.97;;;1.17;;
72920;SDS011;61064;51.654;5.476;2023-08-21T10:39:33;6.65;;;1.10;;
72920;SDS011;61064;51.654;5.476;2023-08-21T10:42:01;4.78;;;0.90;;
72920;SDS011;61064;51.654;5.476;2023-08-21T10:47:30;6.00;;;0.98;;
72920;SDS011;61064;51.654;5.476;2023-08-21T10:52:25;9.35;;;1.40;;
72920;SDS011;61064;51.654;5.476;2023-08-21T10:54:53;8.00;;;1.20;;
72920;SDS011;61064;51.654;5.476;2023-08-21T10:57:21;8.32;;;1.45;;
72920;SDS011;61064;51.654;5.476;2023-08-21T10:59:55;10.63;;;1.48;;
72920;SDS011;61064;51.654;5.476;2023-08-21T11:02:38;7.43;;;1.60;;
72920;SDS011;61064;51.654;5.476;2023-08-21T11:05:06;8.13;;;1.50;;
72920;SDS011;61064;51.654;5.476;2023-08-21T11:07:45;7.40;;;1.60;;
72920;SDS011;61064;51.654;5.476;2023-08-21T11:10:13;7.30;;;1.65;;
72920;SDS011;61064;51.654;5.476;2023-08-21T11:12:55;9.75;;;1.48;;
72920;SDS011;61064;51.654;5.476;2023-08-21T11:15:24;7.77;;;1.50;;
72920;SDS011;61064;51.654;5.476;2023-08-21T11:17:51;9.50;;;1.80;;
72920;SDS011;61064;51.654;5.476;2023-08-21T11:20:20;8.73;;;1.65;;
72920;SDS011;61064;51.654;5.476;2023-08-21T11:22:46;7.03;;;1.40;;
72920;SDS011;61064;51.654;5.476;2023-08-21T11:25:11;10.93;;;1.73;;
72920;SDS011;61064;51.654;5.476;2023-08-21T11:27:40;8.90;;;1.73;;
72920;SDS011;61064;51.654;5.476;2023-08-21T11:30:10;7.10;;;1.60;;
72920;SDS011;61064;51.654;5.476;2023-08-21T11:32:36;7.05;;;1.40;;
72920;SDS011;61064;51.654;5.476;2023-08-21T11:35:01;9.20;;;1.77;;
72920;SDS011;61064;51.654;5.476;2023-08-21T11:37:28;6.95;;;1.52;;
72920;SDS011;61064;51.654;5.476;2023-08-21T11:39:54;7.70;;;1.40;;
72920;SDS011;61064;51.654;5.476;2023-08-21T11:42:23;9.50;;;1.75;;
72920;SDS011;61064;51.654;5.476;2023-08-21T11:44:54;9.30;;;1.67;;
72920;SDS011;61064;51.654;5.476;2023-08-21T11:47:23;9.23;;;1.50;;
72920;SDS011;61064;51.654;5.476;2023-08-21T11:50:06;9.63;;;1.47;;
72920;SDS011;61064;51.654;5.476;2023-08-21T11:52:33;7.25;;;1.80;;
72920;SDS011;61064;51.654;5.476;2023-08-21T11:55:00;8.10;;;1.27;;
72920;SDS011;61064;51.654;5.476;2023-08-21T11:57:26;6.30;;;1.30;;
72920;SDS011;61064;51.654;5.476;2023-08-21T11:59:53;8.67;;;1.63;;
72920;SDS011;61064;51.654;5.476;2023-08-21T12:02:24;9.48;;;1.48;;
72920;SDS011;61064;51.654;5.476;2023-08-21T12:05:06;6.93;;;1.50;;
72920;SDS011;61064;51.654;5.476;2023-08-21T12:07:38;8.10;;;1.25;;
72920;SDS011;61064;51.654;5.476;2023-08-21T12:10:04;7.00;;;1.40;;
72920;SDS011;61064;51.654;5.476;2023-08-21T12:12:30;8.73;;;1.55;;
72920;SDS011;61064;51.654;5.476;2023-08-21T12:14:56;6.60;;;1.13;;
72920;SDS011;61064;51.654;5.476;2023-08-21T12:17:22;7.18;;;1.67;;
72920;SDS011;61064;51.654;5.476;2023-08-21T12:19:50;6.95;;;1.50;;
72920;SDS011;61064;51.654;5.476;2023-08-21T12:22:18;7.40;;;1.50;;
72920;SDS011;61064;51.654;5.476;2023-08-21T12:24:46;6.13;;;1.50;;
72920;SDS011;61064;51.654;5.476;2023-08-21T12:27:18;6.70;;;1.52;;
72920;SDS011;61064;51.654;5.476;2023-08-21T12:29:47;7.88;;;1.42;;
72920;SDS011;61064;51.654;5.476;2023-08-21T12:32:21;7.47;;;1.60;;
72920;SDS011;61064;51.654;5.476;2023-08-21T12:34:46;7.20;;;1.50;;
72920;SDS011;61064;51.654;5.476;2023-08-21T12:37:13;7.03;;;1.65;;
72920;SDS011;61064;51.654;5.476;2023-08-21T12:39:38;7.68;;;1.90;;
72920;SDS011;61064;51.654;5.476;2023-08-21T12:42:07;9.10;;;1.60;;
72920;SDS011;61064;51.654;5.476;2023-08-21T12:44:33;6.55;;;1.55;;
72920;SDS011;61064;51.654;5.476;2023-08-21T12:46:59;7.07;;;1.58;;
72920;SDS011;61064;51.654;5.476;2023-08-21T12:49:24;6.50;;;1.50;;
72920;SDS011;61064;51.654;5.476;2023-08-21T12:51:50;7.27;;;1.50;;
72920;SDS011;61064;51.654;5.476;2023-08-21T12:54:15;6.27;;;1.40;;
72920;SDS011;61064;51.654;5.476;2023-08-21T12:56:40;8.40;;;1.33;;
72920;SDS011;61064;51.654;5.476;2023-08-21T12:59:06;6.50;;;1.23;;
72920;SDS011;61064;51.654;5.476;2023-08-21T13:01:31;6.77;;;1.30;;
72920;SDS011;61064;51.654;5.476;2023-08-21T13:03:59;6.40;;;1.30;;
72920;SDS011;61064;51.654;5.476;2023-08-21T13:06:25;6.72;;;1.33;;
72920;SDS011;61064;51.654;5.476;2023-08-21T13:08:50;6.07;;;1.13;;
72920;SDS011;61064;51.654;5.476;2023-08-21T13:11:15;6.57;;;1.20;;
72920;SDS011;61064;51.654;5.476;2023-08-21T13:13:41;5.40;;;1.07;;
72920;SDS011;61064;51.654;5.476;2023-08-21T13:16:06;5.33;;;1.20;;
72920;SDS011;61064;51.654;5.476;2023-08-21T13:18:31;6.47;;;1.10;;
72920;SDS011;61064;51.654;5.476;2023-08-21T13:20:57;5.90;;;1.10;;
72920;SDS011;61064;51.654;5.476;2023-08-21T13:23:22;6.20;;;1.53;;
72920;SDS011;61064;51.654;5.476;2023-08-21T13:25:48;7.73;;;1.47;;
72920;SDS011;61064;51.654;5.476;2023-08-21T13:28:14;6.05;;;1.10;;
72920;SDS011;61064;51.654;5.476;2023-08-21T13:30:39;5.93;;;1.00;;
72920;SDS011;61064;51.654;5.476;2023-08-21T13:33:04;4.23;;;1.00;;
72920;SDS011;61064;51.654;5.476;2023-08-21T13:35:30;4.57;;;1.10;;
72920;SDS011;61064;51.654;5.476;2023-08-21T13:37:56;4.97;;;1.10;;
72920;SDS011;61064;51.654;5.476;2023-08-21T13:40:23;5.80;;;1.25;;
72920;SDS011;61064;51.654;5.476;2023-08-21T13:42:49;5.28;;;1.10;;
72920;SDS011;61064;51.654;5.476;2023-08-21T13:45:16;5.43;;;1.00;;
72920;SDS011;61064;51.654;5.476;2023-08-21T13:47:47;6.10;;;1.15;;
72920;SDS011;61064;51.654;5.476;2023-08-21T13:50:14;6.63;;;1.20;;
72920;SDS011;61064;51.654;5.476;2023-08-21T13:52:41;4.37;;;1.00;;
72920;SDS011;61064;51.654;5.476;2023-08-21T13:55:08;5.07;;;1.00;;
72920;SDS011;61064;51.654;5.476;2023-08-21T13:57:34;7.03;;;1.20;;
72920;SDS011;61064;51.654;5.476;2023-08-21T14:00:00;6.20;;;1.10;;
72920;SDS011;61064;51.654;5.476;2023-08-21T14:02:26;5.20;;;1.00;;
72920;SDS011;61064;51.654;5.476;2023-08-21T14:04:52;4.47;;;0.90;;
72920;SDS011;61064;51.654;5.476;2023-08-21T14:07:17;5.97;;;1.00;;
72920;SDS011;61064;51.654;5.476;2023-08-21T14:09:42;5.13;;;1.10;;
72920;SDS011;61064;51.654;5.476;2023-08-21T14:12:08;5.68;;;1.17;;
72920;SDS011;61064;51.654;5.476;2023-08-21T14:14:34;4.60;;;0.93;;
72920;SDS011;61064;51.654;5.476;2023-08-21T14:17:00;6.78;;;1.00;;
72920;SDS011;61064;51.654;5.476;2023-08-21T14:19:26;4.40;;;1.00;;
72920;SDS011;61064;51.654;5.476;2023-08-21T14:21:51;6.15;;;0.90;;
72920;SDS011;61064;51.654;5.476;2023-08-21T14:24:17;6.20;;;1.07;;
72920;SDS011;61064;51.654;5.476;2023-08-21T14:26:42;3.57;;;0.90;;
72920;SDS011;61064;51.654;5.476;2023-08-21T14:29:08;4.22;;;0.90;;
72920;SDS011;61064;51.654;5.476;2023-08-21T14:31:33;5.37;;;0.90;;
72920;SDS011;61064;51.654;5.476;2023-08-21T14:33:59;4.72;;;1.00;;
72920;SDS011;61064;51.654;5.476;2023-08-21T14:36:24;5.43;;;0.90;;
72920;SDS011;61064;51.654;5.476;2023-08-21T14:38:50;4.47;;;0.80;;
72920;SDS011;61064;51.654;5.476;2023-08-21T14:41:15;5.17;;;1.00;;
72920;SDS011;61064;51.654;5.476;2023-08-21T14:43:41;6.07;;;0.93;;
72920;SDS011;61064;51.654;5.476;2023-08-21T14:46:07;5.03;;;0.90;;
72920;SDS011;61064;51.654;5.476;2023-08-21T14:48:37;5.87;;;1.00;;
72920;SDS011;61064;51.654;5.476;2023-08-21T14:51:04;6.65;;;0.93;;
72920;SDS011;61064;51.654;5.476;2023-08-21T14:53:30;4.40;;;1.00;;